Time;durP1;ratioP1;P1;durP2;ratioP2;P2;SDS_P1;SDS_P2;PMS_P1;PMS_P2;Temp;Humidity;BMP_temperature;BMP_pressure;BME280_temperature;BME280_humidity;BME280_pressure;Samples;Min_cycle;Max_cycle;Signal;HPM_P1;HPM_P2
2022/10/05 00:01:30;;;;;;;21.45;15.13;;;9.10;99.90;;;8.55;100.00;98326.91;6205555;23;20013;-69
2022/10/05 00:04:24;;;;;;;20.70;14.38;;;9.20;99.90;;;8.62;100.00;98325.91;6204082;23;20074;-70
2022/10/05 00:07:08;;;;;;;18.77;14.10;;;9.20;99.90;;;8.61;100.00;98324.19;6205816;23;20024;-69
2022/10/05 00:09:35;;;;;;;20.13;14.07;;;9.30;99.90;;;8.66;100.00;98317.19;6180247;23;20038;-69
2022/10/05 00:12:18;;;;;;;18.52;12.52;;;9.20;99.90;;;8.59;100.00;98324.22;6205168;23;20021;-69
2022/10/05 00:14:48;;;;;;;16.98;13.00;;;9.20;99.90;;;8.55;100.00;98309.69;6204826;23;20492;-69
2022/10/05 00:17:21;;;;;;;15.73;11.45;;;9.10;99.90;;;8.59;100.00;98308.69;6204963;23;20025;-70
2022/10/05 00:19:51;;;;;;;27.48;17.60;;;9.10;99.90;;;8.55;100.00;98301.91;6206438;23;20016;-69
2022/10/05 00:22:23;;;;;;;22.75;14.93;;;9.10;99.90;;;8.44;100.00;98297.84;6201440;23;20039;-70
2022/10/05 00:24:57;;;;;;;19.27;14.98;;;9.00;99.90;;;8.29;100.00;98291.25;6202819;23;20054;-69
2022/10/05 00:27:28;;;;;;;21.42;15.85;;;9.00;99.90;;;8.00;100.00;98284.97;6202679;23;20599;-69
2022/10/05 00:30:00;;;;;;;22.10;15.18;;;8.90;99.90;;;7.94;100.00;98278.19;6205336;23;20028;-69
2022/10/05 00:32:27;;;;;;;30.90;15.70;;;8.90;99.90;;;7.96;100.00;98268.69;6178851;23;20458;-69
2022/10/05 00:34:56;;;;;;;22.83;15.82;;;8.80;99.90;;;8.39;100.00;98266.88;6206070;23;20024;-69
2022/10/05 00:37:23;;;;;;;25.00;17.40;;;8.90;99.90;;;8.99;100.00;98268.09;6204082;23;20495;-69
2022/10/05 00:39:49;;;;;;;21.40;15.82;;;9.30;99.90;;;9.10;100.00;98265.19;6204505;23;20056;-71
2022/10/05 00:42:40;;;;;;;22.95;16.20;;;9.60;99.90;;;9.06;100.00;98266.19;6229818;23;20086;-70
2022/10/05 00:45:31;;;;;;;22.65;15.05;;;9.70;99.90;;;9.52;100.00;98268.41;6205553;23;20023;-69
2022/10/05 00:48:41;;;;;;;20.85;15.07;;;9.80;99.90;;;9.27;100.00;98267.38;6202851;23;20027;-69
2022/10/05 00:51:27;;;;;;;26.88;18.00;;;10.00;99.90;;;9.29;100.00;98278.53;6205363;23;20127;-69
2022/10/05 00:54:13;;;;;;;24.77;17.65;;;10.00;99.90;;;9.30;100.00;98277.66;6206115;23;20016;-69
2022/10/05 00:57:21;;;;;;;23.98;18.70;;;10.00;99.90;;;9.32;100.00;98281.88;6206520;23;20446;-69
2022/10/05 00:59:54;;;;;;;24.67;17.80;;;10.00;99.90;;;9.33;100.00;98287.94;6206251;23;20027;-69
2022/10/05 01:02:31;;;;;;;26.23;18.50;;;10.10;99.90;;;9.26;100.00;98305.38;6231408;23;20036;-69
2022/10/05 01:05:32;;;;;;;19.15;16.95;;;10.00;99.90;;;9.39;100.00;98311.94;6207458;23;20084;-69
2022/10/05 01:08:54;;;;;;;30.85;18.75;;;10.10;99.90;;;9.37;100.00;98315.44;6209022;23;20357;-70
2022/10/05 01:11:27;;;;;;;21.83;15.82;;;10.00;99.90;;;9.34;100.00;98316.38;6086873;23;20067;-69
2022/10/05 01:14:38;;;;;;;25.80;18.95;;;9.90;99.90;;;9.36;100.00;98326.72;6214697;23;20039;-69
2022/10/05 01:17:44;;;;;;;27.73;18.90;;;10.00;99.90;;;9.39;100.00;98330.06;6207833;23;20027;-69
2022/10/05 01:20:43;;;;;;;26.50;19.30;;;10.10;99.90;;;9.55;100.00;98325.34;6186164;23;20020;-69
2022/10/05 01:23:51;;;;;;;25.30;18.48;;;10.20;99.90;;;9.59;100.00;98332.16;6207380;23;20032;-70
2022/10/05 01:26:46;;;;;;;27.92;18.42;;;10.20;99.90;;;9.71;100.00;98332.72;6204008;23;20353;-70
2022/10/05 01:29:23;;;;;;;27.17;18.48;;;10.20;99.90;;;9.88;100.00;98332.25;6208157;23;20029;-70
2022/10/05 01:32:07;;;;;;;27.63;19.00;;;10.40;99.90;;;10.01;100.00;98338.78;6204761;23;20032;-69
2022/10/05 01:35:02;;;;;;;22.73;18.45;;;10.50;99.90;;;9.92;100.00;98342.50;6207495;23;20028;-70
2022/10/05 01:38:15;;;;;;;26.60;18.50;;;10.70;99.90;;;10.05;100.00;98337.81;6206007;23;20016;-69
2022/10/05 01:41:00;;;;;;;23.80;17.20;;;10.80;99.90;;;10.09;100.00;98339.44;6207745;23;20028;-69
2022/10/05 01:43:37;;;;;;;25.75;19.25;;;10.80;99.90;;;10.02;100.00;98341.34;6208575;23;20025;-69
2022/10/05 01:46:50;;;;;;;22.23;17.67;;;10.90;99.90;;;10.16;100.00;98340.94;6203999;23;20032;-69
2022/10/05 01:49:44;;;;;;;34.25;18.48;;;10.90;99.90;;;10.23;100.00;98332.09;6193170;23;20035;-70
2022/10/05 01:52:55;;;;;;;37.42;24.42;;;10.90;99.90;;;10.12;100.00;98326.38;6205251;23;20024;-69
2022/10/05 01:55:35;;;;;;;130.02;34.38;;;10.90;99.90;;;10.07;100.00;98338.63;6172499;23;20036;-70
2022/10/05 01:58:18;;;;;;;190.60;36.97;;;10.90;99.90;;;10.00;100.00;98344.88;6205425;23;20021;-69
2022/10/05 02:01:23;;;;;;;263.42;39.13;;;10.90;99.90;;;9.98;100.00;98336.28;6207025;23;20025;-70
2022/10/05 02:04:10;;;;;;;318.60;43.80;;;10.90;99.90;;;9.87;100.00;98336.56;6208826;23;20020;-71
2022/10/05 02:06:48;;;;;;;288.35;36.40;;;10.80;99.90;;;9.84;100.00;98327.16;6208148;23;20339;-69
2022/10/05 02:09:24;;;;;;;244.98;34.38;;;10.70;99.90;;;9.78;100.00;98345.47;6230090;23;20039;-70
2022/10/05 02:11:59;;;;;;;375.02;44.67;;;10.70;99.90;;;9.73;100.00;98338.69;6219055;23;20082;-70
2022/10/05 02:14:35;;;;;;;191.23;28.15;;;10.70;99.90;;;9.78;100.00;98329.06;6220534;23;20036;-69
2022/10/05 02:17:12;;;;;;;397.35;44.60;;;10.70;99.90;;;9.69;100.00;98329.31;6213064;23;20024;-70
2022/10/05 02:19:51;;;;;;;157.85;28.08;;;10.60;99.90;;;9.86;100.00;98323.69;6218463;23;20059;-69
2022/10/05 02:22:31;;;;;;;108.63;23.50;;;10.60;99.90;;;9.73;100.00;98317.97;6206730;23;20030;-69
2022/10/05 02:25:05;;;;;;;182.25;28.17;;;10.60;99.90;;;9.74;100.00;98322.25;6206285;23;20047;-69
2022/10/05 02:27:51;;;;;;;320.33;43.40;;;10.60;99.90;;;9.72;100.00;98313.69;6208440;23;20055;-69
2022/10/05 02:30:18;;;;;;;260.38;34.13;;;10.60;99.90;;;9.77;100.00;98301.44;6206784;23;20341;-70
2022/10/05 02:33:00;;;;;;;384.00;43.08;;;10.60;99.90;;;9.74;100.00;98317.06;6205047;23;20016;-69
2022/10/05 02:35:27;;;;;;;275.75;37.08;;;10.60;99.90;;;9.73;100.00;98312.78;6207133;23;20028;-69
2022/10/05 02:38:10;;;;;;;427.58;45.13;;;10.60;99.90;;;9.79;100.00;98312.63;6206979;23;20021;-69
2022/10/05 02:41:13;;;;;;;239.63;32.90;;;10.60;99.90;;;9.78;100.00;98308.31;6181598;23;20098;-69
2022/10/05 02:44:28;;;;;;;67.30;19.23;;;10.60;99.90;;;9.85;100.00;98296.88;6208705;23;20466;-69
2022/10/05 02:47:32;;;;;;;147.60;24.65;;;10.50;99.90;;;9.69;100.00;98287.81;6206673;23;20046;-69
2022/10/05 02:50:17;;;;;;;397.88;43.55;;;10.50;99.90;;;9.55;100.00;98296.81;6206341;23;20032;-69
2022/10/05 02:53:01;;;;;;;85.55;20.40;;;10.40;99.90;;;9.67;100.00;98298.25;6206913;23;20036;-69
2022/10/05 02:55:52;;;;;;;371.48;43.00;;;10.40;99.90;;;9.64;100.00;98290.53;6206665;23;20032;-69
2022/10/05 02:58:24;;;;;;;226.35;29.70;;;10.50;99.90;;;9.61;100.00;98290.63;6207104;23;20033;-69
2022/10/05 03:01:51;;;;;;;88.43;21.80;;;10.40;99.90;;;9.68;100.00;98276.63;6206277;23;20472;-69
2022/10/05 03:05:03;;;;;;;366.02;43.90;;;10.50;99.90;;;9.66;100.00;98272.38;6207090;23;20028;-69
2022/10/05 03:07:34;;;;;;;79.30;20.13;;;10.50;99.90;;;9.73;100.00;98277.31;6206028;23;20063;-70
2022/10/05 03:10:17;;;;;;;90.90;19.92;;;10.50;99.90;;;9.76;100.00;98273.78;6206630;23;20028;-69
2022/10/05 03:13:16;;;;;;;71.82;21.27;;;10.50;99.90;;;9.81;100.00;98282.31;6204913;23;20356;-69
2022/10/05 03:16:07;;;;;;;332.27;40.75;;;10.60;99.90;;;9.75;100.00;98282.47;6204709;23;20017;-69
2022/10/05 03:19:11;;;;;;;296.83;33.10;;;10.60;99.90;;;9.67;100.00;98277.53;6205307;23;20035;-69
2022/10/05 03:22:11;;;;;;;292.70;36.85;;;10.60;99.90;;;9.53;100.00;98275.28;6207387;23;20035;-69
2022/10/05 03:24:59;;;;;;;203.57;30.15;;;10.50;99.90;;;9.56;100.00;98275.22;6207512;23;20444;-69
2022/10/05 03:27:57;;;;;;;283.85;39.88;;;10.50;99.90;;;9.54;100.00;98268.38;6207801;23;20020;-69
2022/10/05 03:30:30;;;;;;;239.80;36.70;;;10.50;99.90;;;9.50;100.00;98287.50;6205930;23;20028;-69
2022/10/05 03:33:24;;;;;;;162.40;30.38;;;10.50;99.90;;;9.50;100.00;98277.97;6204213;23;20495;-70
2022/10/05 03:36:15;;;;;;;172.27;32.50;;;10.50;99.90;;;9.45;100.00;98269.47;6205316;23;20116;-69
2022/10/05 03:39:18;;;;;;;215.48;31.00;;;10.40;99.90;;;9.50;100.00;98272.78;6208119;23;20021;-69
2022/10/05 03:42:03;;;;;;;159.15;27.45;;;10.40;99.90;;;9.49;100.00;98278.00;6207123;23;20087;-69
2022/10/05 03:45:17;;;;;;;138.30;26.00;;;10.30;99.90;;;9.36;100.00;98278.34;6205154;23;20024;-69
2022/10/05 03:48:08;;;;;;;111.82;21.50;;;10.30;99.90;;;9.32;100.00;98286.22;6203776;23;20016;-69
2022/10/05 03:50:52;;;;;;;336.98;40.85;;;10.30;99.90;;;9.32;100.00;98283.63;6207015;23;20027;-69
2022/10/05 03:53:22;;;;;;;311.85;34.60;;;10.30;99.90;;;9.30;100.00;98281.06;6204965;23;20028;-69
2022/10/05 03:56:00;;;;;;;299.88;33.33;;;10.30;99.90;;;9.29;100.00;98294.09;6206461;23;20024;-69
2022/10/05 03:58:51;;;;;;;363.75;38.55;;;10.20;99.90;;;9.46;100.00;98285.88;6205790;23;20326;-70
2022/10/05 04:01:26;;;;;;;65.82;16.50;;;10.20;99.90;;;9.53;100.00;98282.22;6205724;23;20310;-69
2022/10/05 04:04:06;;;;;;;402.85;45.13;;;10.30;99.90;;;9.33;100.00;98283.59;6205368;23;20025;-69
2022/10/05 04:06:41;;;;;;;307.48;35.78;;;10.30;99.90;;;9.36;100.00;98288.69;6204168;23;20021;-69
2022/10/05 04:09:24;;;;;;;354.95;41.42;;;10.30;99.90;;;9.38;100.00;98281.75;6206245;23;20024;-69
2022/10/05 04:11:57;;;;;;;;;;;10.30;99.90;;;9.49;100.00;98286.66;6204627;23;20032;-69
2022/10/05 04:14:56;;;;;;;79.47;17.50;;;10.30;99.90;;;9.46;100.00;98285.88;6204359;23;19920;-69
2022/10/05 04:17:48;;;;;;;263.52;35.45;;;10.30;99.90;;;9.29;100.00;98279.38;6202067;23;20072;-69
2022/10/05 04:20:43;;;;;;;329.15;42.28;;;10.30;99.90;;;9.27;100.00;98277.75;6203445;23;20484;-69
2022/10/05 04:23:16;;;;;;;311.77;43.08;;;10.30;99.90;;;9.31;100.00;98284.53;6205347;23;20079;-69
2022/10/05 04:26:02;;;;;;;321.92;42.58;;;10.30;99.90;;;9.26;100.00;98283.78;6214952;23;20378;-69
2022/10/05 04:29:20;;;;;;;188.57;30.65;;;10.30;99.90;;;9.39;100.00;98283.44;6207172;23;20020;-69
2022/10/05 04:32:10;;;;;;;242.05;33.47;;;10.30;99.90;;;9.41;100.00;98285.97;6141874;23;20040;-68
2022/10/05 04:35:10;;;;;;;80.32;21.33;;;10.30;99.90;;;9.41;100.00;98285.97;6206025;23;20040;-68
2022/10/05 04:37:50;;;;;;;145.07;27.50;;;10.30;99.90;;;9.41;100.00;98276.47;6203549;23;20031;-68
2022/10/05 04:40:51;;;;;;;215.75;31.65;;;10.30;99.90;;;9.40;100.00;98285.16;6208334;23;20020;-68
2022/10/05 04:43:35;;;;;;;324.33;42.85;;;10.30;99.90;;;9.34;100.00;98282.69;6208819;23;20027;-67
2022/10/05 04:46:08;;;;;;;202.50;30.15;;;10.30;99.90;;;9.35;100.00;98281.84;6208350;23;20021;-66
2022/10/05 04:49:07;;;;;;;142.57;31.00;;;10.30;99.90;;;9.33;100.00;98275.00;6218535;23;20016;-68
2022/10/05 04:51:58;;;;;;;81.53;25.98;;;10.30;99.90;;;9.42;100.00;98278.19;6207720;23;20372;-67
2022/10/05 04:55:15;;;;;;;159.52;34.47;;;10.30;99.90;;;9.48;100.00;98268.53;6208481;23;20379;-68
2022/10/05 04:58:28;;;;;;;146.35;30.88;;;10.30;99.90;;;9.48;100.00;98277.16;6207705;23;20035;-66
2022/10/05 05:01:05;;;;;;;53.38;21.50;;;10.40;99.90;;;9.54;100.00;98269.22;6203897;23;20040;-68
2022/10/05 05:04:10;;;;;;;59.20;26.13;;;10.30;99.90;;;9.62;100.00;98271.59;6205366;23;20093;-67
2022/10/05 05:06:56;;;;;;;37.90;20.58;;;10.40;99.90;;;9.62;100.00;98281.97;6207996;23;20020;-68
2022/10/05 05:09:38;;;;;;;19.85;16.20;;;10.40;99.90;;;9.68;100.00;98280.97;6206963;23;20036;-68
2022/10/05 05:12:29;;;;;;;29.85;21.00;;;10.40;99.90;;;9.72;100.00;98273.06;6208485;23;20032;-68
2022/10/05 05:15:33;;;;;;;20.15;16.98;;;10.50;99.90;;;9.81;100.00;98266.75;6208820;23;20021;-68
2022/10/05 05:18:35;;;;;;;20.75;17.27;;;10.50;99.90;;;9.82;100.00;98273.63;6209138;23;20024;-68
2022/10/05 05:21:36;;;;;;;17.63;14.68;;;10.60;99.90;;;9.80;100.00;98278.00;6087658;23;20019;-68
2022/10/05 05:24:37;;;;;;;21.50;16.70;;;10.70;99.90;;;9.80;100.00;98289.22;6209413;23;20044;-68
2022/10/05 05:27:45;;;;;;;19.88;17.17;;;10.70;99.90;;;9.87;100.00;98286.47;6208623;23;20017;-68
2022/10/05 05:30:36;;;;;;;15.45;13.90;;;10.70;99.90;;;9.95;100.00;98284.53;6206001;23;20028;-68
2022/10/05 05:33:19;;;;;;;16.20;14.27;;;10.70;99.90;;;10.01;100.00;98292.09;6207869;23;20027;-69
2022/10/05 05:36:32;;;;;;;14.70;13.18;;;10.70;99.90;;;10.00;100.00;98298.19;6207277;23;20024;-67
2022/10/05 05:39:23;;;;;;;18.65;16.02;;;10.70;99.90;;;10.04;100.00;98295.47;6207102;23;20024;-68
2022/10/05 05:42:25;;;;;;;17.30;14.35;;;10.80;99.90;;;10.16;100.00;98301.19;6208526;23;20028;-67
2022/10/05 05:44:55;;;;;;;18.27;14.75;;;10.80;99.90;;;10.10;100.00;98310.00;6208200;23;20035;-69
2022/10/05 05:47:34;;;;;;;19.23;14.77;;;10.80;99.90;;;10.13;100.00;98309.06;6206795;23;20029;-68
2022/10/05 05:50:52;;;;;;;19.08;15.02;;;10.90;99.90;;;10.18;100.00;98300.25;6182023;23;20492;-67
2022/10/05 05:53:50;;;;;;;19.73;15.32;;;10.90;99.90;;;10.28;100.00;98300.81;6167246;23;20032;-68
2022/10/05 05:56:26;;;;;;;16.35;14.63;;;10.90;99.90;;;10.24;100.00;98309.59;6231024;23;20035;-67
2022/10/05 05:59:28;;;;;;;19.83;16.67;;;11.00;99.90;;;10.13;100.00;98309.91;6206887;23;20020;-68
2022/10/05 06:02:09;;;;;;;27.83;18.88;;;11.00;99.90;;;10.21;100.00;98314.88;6205398;23;20268;-68
2022/10/05 06:05:08;;;;;;;17.08;15.15;;;11.00;99.90;;;10.33;100.00;98306.78;6207033;23;20025;-68
2022/10/05 06:07:37;;;;;;;30.05;22.50;;;11.00;99.90;;;10.19;100.00;98309.72;6207534;23;20028;-67
2022/10/05 06:10:28;;;;;;;24.27;18.80;;;11.00;99.90;;;10.27;100.00;98315.53;6206526;23;20487;-68
2022/10/05 06:12:59;;;;;;;19.02;15.88;;;11.00;99.90;;;10.26;100.00;98303.47;6206872;23;20044;-67
2022/10/05 06:15:51;;;;;;;24.95;17.50;;;11.00;99.90;;;10.32;100.00;98307.66;6206213;23;20043;-68
2022/10/05 06:18:21;;;;;;;24.48;17.27;;;11.00;99.90;;;10.36;100.00;98318.81;6206714;23;20024;-68
2022/10/05 06:21:07;;;;;;;20.50;16.75;;;11.00;99.90;;;10.21;100.00;98320.91;6207484;23;20032;-68
2022/10/05 06:23:47;;;;;;;35.45;22.17;;;11.10;99.90;;;10.16;100.00;98315.00;6205799;23;20021;-67
2022/10/05 06:26:51;;;;;;;45.80;21.15;;;11.00;99.90;;;10.13;100.00;98309.06;6206783;23;20039;-68
2022/10/05 06:29:35;;;;;;;99.55;27.60;;;11.10;99.90;;;10.05;100.00;98315.31;6206458;23;20464;-67
2022/10/05 06:32:19;;;;;;;58.78;26.63;;;11.10;99.90;;;10.12;100.00;98320.34;6206600;23;20020;-68
2022/10/05 06:34:55;;;;;;;84.82;23.05;;;11.10;99.90;;;10.18;100.00;98315.81;6207989;23;20023;-67
2022/10/05 06:38:02;;;;;;;101.22;31.70;;;11.10;99.90;;;10.17;100.00;98321.03;6208533;23;20024;-68
2022/10/05 06:41:07;;;;;;;71.03;21.42;;;11.10;99.90;;;10.20;100.00;98316.63;6208669;23;20028;-68
2022/10/05 06:44:01;;;;;;;37.78;19.20;;;11.10;99.90;;;10.35;100.00;98311.91;6232058;23;20098;-67
2022/10/05 06:46:37;;;;;;;239.40;36.92;;;11.10;99.90;;;10.12;100.00;98317.75;6204817;23;20025;-68
2022/10/05 06:49:45;;;;;;;100.88;28.13;;;11.10;99.90;;;10.34;100.00;98305.03;6207786;23;20329;-68
2022/10/05 06:52:37;;;;;;;64.05;19.60;;;11.10;99.90;;;10.27;100.00;98307.75;6216720;23;20025;-68
2022/10/05 06:55:18;;;;;;;158.23;31.10;;;11.10;99.90;;;10.18;100.00;98321.00;6207517;23;20103;-67
2022/10/05 06:58:17;;;;;;;146.07;29.15;;;11.20;99.90;;;10.26;100.00;98310.38;6207458;23;20080;-67
2022/10/05 07:00:51;;;;;;;162.07;26.58;;;11.20;99.90;;;10.22;100.00;98314.84;6205841;23;20448;-67
2022/10/05 07:03:48;;;;;;;50.42;15.45;;;11.20;99.90;;;10.34;100.00;98323.19;6206145;23;20060;-67
2022/10/05 07:06:46;;;;;;;170.90;34.53;;;11.10;99.90;;;10.22;100.00;98316.59;6207815;23;20079;-67
2022/10/05 07:09:41;;;;;;;134.95;26.30;;;11.20;99.90;;;10.15;100.00;98328.00;6205890;23;20044;-67
2022/10/05 07:12:29;;;;;;;129.98;25.58;;;11.10;99.90;;;10.25;100.00;98322.53;6207712;23;20044;-66
2022/10/05 07:15:34;;;;;;;215.13;30.38;;;11.10;99.90;;;10.24;100.00;98327.75;6205710;23;20360;-66
2022/10/05 07:18:33;;;;;;;100.28;18.17;;;11.10;99.90;;;10.32;100.00;98315.44;6206248;23;20035;-67
2022/10/05 07:21:38;;;;;;;31.27;11.95;;;11.20;99.90;;;10.33;100.00;98317.16;6206622;23;20352;-67
2022/10/05 07:24:33;;;;;;;129.27;22.85;;;11.30;99.90;;;10.25;100.00;98324.28;6180366;23;20090;-67
2022/10/05 07:27:18;;;;;;;210.38;28.40;;;11.30;99.90;;;10.08;100.00;98329.09;6205348;23;20025;-67
2022/10/05 07:30:03;;;;;;;120.25;24.65;;;11.30;99.90;;;10.33;100.00;98330.13;6206250;23;20028;-67
2022/10/05 07:32:37;;;;;;;56.40;13.68;;;11.30;99.90;;;10.43;100.00;98318.56;6205450;23;20043;-67
2022/10/05 07:38:31;;;;;;;70.10;14.10;;;11.40;99.90;;;10.47;100.00;98329.72;6207635;23;20021;-67
2022/10/05 07:41:08;;;;;;;;;;;11.50;99.90;;;10.67;100.00;98329.97;6216352;23;20091;-67
2022/10/05 07:43:37;;;;;;;45.90;13.27;;;11.50;99.90;;;10.66;100.00;98337.78;6206653;23;20453;-67
2022/10/05 07:46:53;;;;;;;71.63;17.58;;;11.50;99.90;;;10.74;100.00;98338.41;6205023;23;20104;-67
2022/10/05 07:49:56;;;;;;;25.10;10.05;;;11.60;99.90;;;10.88;100.00;98335.38;6207453;23;20024;-67
2022/10/05 07:52:38;;;;;;;;;;;11.60;99.90;;;10.55;100.00;98329.47;6207905;23;20475;-66
2022/10/05 07:55:18;;;;;;;92.90;19.35;;;11.80;99.90;;;10.56;100.00;98333.75;6215823;23;19920;-67
2022/10/05 07:58:30;;;;;;;57.22;11.10;;;11.80;99.90;;;10.66;100.00;98338.63;6207581;23;20016;-68
2022/10/05 08:01:21;;;;;;;91.57;14.20;;;11.70;99.90;;;10.84;100.00;98334.63;6205654;23;20036;-68
2022/10/05 08:04:17;;;;;;;96.15;13.88;;;11.70;99.90;;;10.66;100.00;98335.19;6206113;23;20440;-67
2022/10/05 08:07:10;;;;;;;35.20;11.23;;;11.80;99.90;;;10.88;100.00;98333.63;6205355;23;20343;-67
2022/10/05 08:09:53;;;;;;;25.50;9.85;;;11.80;99.90;;;11.10;100.00;98327.72;6182136;23;20020;-67
2022/10/05 08:12:27;;;;;;;63.23;13.07;;;12.00;99.90;;;10.89;100.00;98326.69;6206605;23;20421;-67
2022/10/05 08:15:15;;;;;;;42.03;9.98;;;12.10;99.90;;;11.13;100.00;98326.78;6230656;23;20272;-67
2022/10/05 08:18:01;;;;;;;12.65;7.75;;;12.20;99.90;;;11.33;100.00;98336.50;6206085;23;20316;-67
2022/10/05 08:20:55;;;;;;;24.73;12.57;;;12.30;99.90;;;11.43;100.00;98319.72;6206353;23;20584;-66
2022/10/05 08:23:43;;;;;;;12.70;8.88;;;12.50;99.90;;;11.52;100.00;98332.41;6206757;23;20024;-68
2022/10/05 08:26:35;;;;;;;12.57;8.02;;;12.70;99.90;;;11.40;100.00;98331.03;6206806;23;20021;-67
2022/10/05 08:29:35;;;;;;;12.77;8.02;;;12.70;99.90;;;11.81;100.00;98328.75;6206595;23;20803;-68
2022/10/05 08:32:34;;;;;;;11.55;8.82;;;12.90;99.90;;;11.49;100.00;98332.50;6206600;23;20032;-67
2022/10/05 08:35:32;;;;;;;7.80;6.15;;;12.90;99.90;;;11.48;100.00;98336.84;6205380;23;20036;-66
2022/10/05 08:38:07;;;;;;;8.63;6.68;;;13.00;99.90;;;11.98;100.00;98322.16;6205431;23;20031;-67
2022/10/05 08:41:15;;;;;;;7.18;5.82;;;13.10;99.90;;;12.29;100.00;98333.16;6205235;23;20017;-67
2022/10/05 08:43:57;;;;;;;8.15;6.60;;;;;;;12.12;100.00;98330.31;6205979;23;20065;-67
2022/10/05 08:46:54;;;;;;;8.23;6.80;;;13.40;99.90;;;12.51;100.00;98330.56;6204478;23;20028;-66
2022/10/05 08:49:49;;;;;;;7.40;6.40;;;13.50;99.90;;;12.37;100.00;98326.78;6205627;23;20050;-67
2022/10/05 08:52:27;;;;;;;8.63;6.63;;;13.40;99.90;;;12.27;100.00;98327.16;6207827;23;20036;-67
2022/10/05 08:55:29;;;;;;;10.50;7.70;;;13.30;99.90;;;12.26;100.00;98308.97;6208029;23;20024;-67
2022/10/05 08:58:41;;;;;;;11.73;7.55;;;13.40;99.90;;;12.31;100.00;98287.06;6205555;23;20044;-67
2022/10/05 09:01:35;;;;;;;10.95;6.95;;;13.30;99.90;;;12.26;100.00;98285.53;6206418;23;20032;-67
2022/10/05 09:04:18;;;;;;;12.77;6.55;;;13.40;99.90;;;12.34;100.00;98278.31;6204637;23;20098;-66
2022/10/05 09:07:12;;;;;;;12.60;7.88;;;13.40;99.90;;;11.88;100.00;98265.25;6206866;23;20410;-67
2022/10/05 09:10:02;;;;;;;12.70;8.60;;;13.30;99.90;;;12.11;100.00;98268.75;6205897;23;20024;-68
2022/10/05 09:12:51;;;;;;;10.32;7.80;;;13.40;99.90;;;12.15;100.00;98270.31;6206127;23;20029;-68
2022/10/05 09:15:43;;;;;;;10.95;7.72;;;13.40;99.90;;;12.39;100.00;98265.09;6204673;23;20123;-67
2022/10/05 09:18:32;;;;;;;10.47;7.93;;;13.50;99.90;;;12.31;100.00;98252.38;6203037;23;20043;-67
2022/10/05 09:21:45;;;;;;;10.43;7.97;;;13.60;99.90;;;12.79;100.00;98248.72;6207836;23;20032;-67
2022/10/05 09:24:41;;;;;;;12.40;8.82;;;13.70;99.90;;;12.39;100.00;98252.94;6161235;23;20055;-67
2022/10/05 09:27:44;;;;;;;9.30;7.78;;;13.80;99.90;;;12.46;100.00;98267.41;6207445;23;20024;-68
2022/10/05 09:30:31;;;;;;;11.38;8.52;;;13.90;99.90;;;12.69;100.00;98240.44;6207659;23;20381;-66
2022/10/05 09:33:12;;;;;;;10.00;8.27;;;13.90;99.90;;;12.75;100.00;98255.81;6207651;23;20115;-67
2022/10/05 09:36:24;;;;;;;11.00;8.88;;;13.90;99.90;;;13.06;100.00;98254.56;6208136;23;20035;-66
2022/10/05 09:39:03;;;;;;;9.57;8.15;;;14.00;99.90;;;12.82;100.00;98259.03;6206508;23;20028;-66
2022/10/05 09:41:45;;;;;;;10.23;7.97;;;14.10;99.90;;;12.80;100.00;98237.41;6208442;23;20020;-66
2022/10/05 09:44:35;;;;;;;11.75;9.02;;;14.00;99.90;;;12.95;100.00;98239.38;6209373;23;20032;-67
2022/10/05 09:47:34;;;;;;;13.15;8.75;;;14.00;99.90;;;13.13;100.00;98235.13;6206920;23;20103;-67
2022/10/05 09:50:41;;;;;;;11.40;9.73;;;14.10;99.90;;;12.81;100.00;98236.47;6209129;23;20108;-67
2022/10/05 09:53:33;;;;;;;13.50;9.30;;;13.90;99.90;;;12.92;100.00;98238.66;6207020;23;20016;-67
2022/10/05 09:56:33;;;;;;;12.37;8.57;;;14.10;99.90;;;13.45;100.00;98225.09;6206221;23;20016;-66
2022/10/05 09:59:11;;;;;;;13.43;9.15;;;14.30;99.90;;;13.43;100.00;98232.16;6208603;23;20453;-67
2022/10/05 10:02:15;;;;;;;8.13;6.95;;;14.60;99.90;;;13.25;100.00;98231.19;6205689;23;20400;-66
2022/10/05 10:05:22;;;;;;;13.75;9.23;;;14.70;99.90;;;13.33;100.00;98218.66;6205781;23;20024;-66
2022/10/05 10:08:19;;;;;;;12.73;8.82;;;14.90;99.90;;;13.39;100.00;98205.38;6208107;23;20024;-66
2022/10/05 10:11:03;;;;;;;10.77;8.13;;;14.80;99.90;;;13.86;100.00;98203.31;6208096;23;20024;-67
2022/10/05 10:13:58;;;;;;;12.75;8.20;;;14.80;99.90;;;14.14;100.00;98205.47;6206190;23;20191;-67
2022/10/05 10:16:40;;;;;;;10.02;6.95;;;15.10;99.90;;;14.39;100.00;98169.47;6205179;23;20082;-67
2022/10/05 10:19:23;;;;;;;9.70;6.60;;;15.40;99.90;;;14.55;100.00;98142.59;6206159;23;20020;-67
2022/10/05 10:22:12;;;;;;;9.38;6.22;;;15.50;99.90;;;14.03;100.00;98125.06;6205719;23;20039;-67
2022/10/05 10:25:19;;;;;;;11.38;6.32;;;15.70;99.90;;;14.50;100.00;98094.94;6207765;23;20021;-68
2022/10/05 10:27:53;;;;;;;9.90;6.28;;;15.70;99.90;;;14.47;100.00;98084.66;6205220;23;20027;-68
2022/10/05 10:30:39;;;;;;;8.68;5.88;;;15.80;99.90;;;14.69;100.00;98053.94;6207127;23;20357;-67
2022/10/05 10:33:36;;;;;;;10.45;5.43;;;15.70;99.90;;;14.48;100.00;98049.75;6204220;23;20464;-67
2022/10/05 10:36:33;;;;;;;12.07;5.90;;;15.70;99.90;;;14.63;100.00;98030.72;6207470;23;20028;-67
2022/10/05 10:39:51;;;;;;;11.40;6.10;;;15.70;99.90;;;14.83;100.00;98025.31;6207005;23;20020;-68
2022/10/05 10:42:35;;;;;;;11.20;6.00;;;15.70;99.90;;;14.73;100.00;98013.63;6206291;23;20024;-68
2022/10/05 10:45:18;;;;;;;7.63;5.55;;;15.80;99.90;;;14.97;100.00;98016.72;6205742;23;20025;-67
2022/10/05 10:48:04;;;;;;;10.43;6.30;;;16.00;99.90;;;14.97;100.00;98008.88;6206116;23;20028;-67
2022/10/05 10:51:00;;;;;;;8.57;6.10;;;16.00;99.90;;;15.39;100.00;98004.03;6203996;23;20029;-65
2022/10/05 10:54:05;;;;;;;8.68;5.82;;;16.20;99.90;;;15.15;100.00;98003.59;6205521;23;20028;-67
2022/10/05 10:56:55;;;;;;;7.10;5.32;;;16.40;99.90;;;15.75;100.00;97987.22;6202266;23;20048;-66
2022/10/05 10:59:58;;;;;;;9.20;6.55;;;16.70;99.90;;;15.83;100.00;97985.03;6200479;23;20429;-67
2022/10/05 11:03:03;;;;;;;7.38;5.70;;;16.90;99.90;;;15.73;100.00;97982.06;6203742;23;20092;-68
2022/10/05 11:05:45;;;;;;;12.60;6.00;;;16.80;99.90;;;15.61;100.00;97977.50;6204909;23;20364;-68
2022/10/05 11:08:36;;;;;;;9.95;6.70;;;16.90;99.90;;;15.63;100.00;97973.88;6206127;23;20534;-66
2022/10/05 11:11:40;;;;;;;7.05;5.95;;;17.00;99.90;;;16.14;100.00;97957.88;6207114;23;20088;-67
2022/10/05 11:14:25;;;;;;;7.53;5.78;;;17.10;99.90;;;16.02;100.00;97950.75;6205733;23;20025;-67
2022/10/05 11:18:03;;;;;;;8.48;5.88;;;17.10;99.90;;;16.08;100.00;97953.84;6205976;23;20031;-66
2022/10/05 11:21:10;;;;;;;9.40;5.40;;;17.00;99.90;;;16.19;100.00;97955.81;6150351;23;20628;-67
2022/10/05 11:24:17;;;;;;;7.10;5.57;;;17.20;99.90;;;16.77;100.00;97929.66;6205734;23;20066;-68
2022/10/05 11:27:09;;;;;;;8.55;4.88;;;17.40;99.90;;;16.73;100.00;97929.84;6205193;23;20025;-66
2022/10/05 11:30:12;;;;;;;11.10;5.53;;;17.50;99.90;;;16.65;100.00;97921.63;6205868;23;20337;-67
2022/10/05 11:33:10;;;;;;;7.10;4.93;;;17.60;99.90;;;16.52;100.00;97925.94;6206142;23;20021;-67
2022/10/05 11:36:18;;;;;;;8.32;5.78;;;17.50;99.90;;;16.24;100.00;97924.16;6205440;23;20024;-67
2022/10/05 11:39:42;;;;;;;14.43;5.20;;;17.50;99.90;;;16.36;100.00;97928.63;6182728;23;20425;-67
2022/10/05 11:42:24;;;;;;;6.28;4.82;;;17.40;99.90;;;16.70;100.00;97922.19;6181978;23;20032;-68
2022/10/05 11:45:22;;;;;;;7.75;5.10;;;17.60;99.90;;;16.72;100.00;97912.44;6207524;23;20029;-68